• Join FlightAware (Why Join?)
  • Login
  • US Flag 
07:39AM EDT


 

Airport Tracker/Info


-or-


 

Live Flight TrackerFlight Track Log ✈ ASQ5740 ✈ 22-Nov-2013 ✈ KIAD - KGSP

Flight Track Log - Related Links

Times and Time Zones

All times are in EST time to prevent confusion due to time zone crossing. See the ASQ5740 flight status page for this flight to view local times or setup timezone preferences in your user account.

Time Position Orientation Groundspeed Altitude Reporting Facility
EST Latitude Longitude Course Direction KTS MPH feet Rate Location/Type
01:17PM 38.9500 -77.5167 226° Southwest 179 206 1,500  Level Potomac TRACON
01:18PM 38.8833 -77.5333 191° South 234 269 3,300 2,100 Climbing Potomac TRACON
01:19PM 38.8167 -77.5167 169° South 275 316 5,800 2,400 Climbing Potomac TRACON
01:21PM 38.7017 -77.5417 190° South 252 290 9,900 2,220 Climbing Washington Center
01:22PM 38.5995 -77.8987 233° Southwest  Level Estimated
01:22PM 38.6489 -77.5881 214° Southwest 252 290 11,900  Level Washington Center
01:23PM 38.5297 -77.9860 226° Southwest  Level Estimated
01:23PM 38.5872 -77.6528 219° Southwest 265 305 13,900  Level Washington Center
01:24PM 38.5278 -77.7122 218° Southwest 273 314 16,100 1,800 Climbing Washington Center
01:25PM 38.4600 -77.7686 213° Southwest 283 326 17,500 1,200 Climbing Washington Center
01:26PM 38.3922 -77.8300 215° Southwest 294 338 18,600 1,200 Climbing Washington Center
01:27PM 38.3161 -77.8914 212° Southwest 313 360 19,900 1,320 Climbing Washington Center
01:28PM 38.2439 -77.9553 215° Southwest 318 366 21,200 1,200 Climbing Washington Center
01:29PM 38.1836 -78.0406 228° Southwest 318 366 22,400 1,080 Climbing Washington Center
01:30PM 38.1236 -78.1256 228° Southwest 324 373 23,400 780 Climbing Washington Center
01:31PM 38.0611 -78.2133 228° Southwest 329 379 24,000 300 Climbing Washington Center
01:32PM 37.9922 -78.3083 227° Southwest 334 384 24,000  Level Washington Center
01:33PM 37.9278 -78.3981 228° Southwest 334 384 24,000  Level Washington Center
01:34PM 37.8631 -78.4878 228° Southwest 334 384 24,000  Level Washington Center
01:35PM 37.8003 -78.5747 228° Southwest 339 390 24,000  Level Washington Center
01:36PM 37.7442 -78.6539 228° Southwest 339 390 24,000  Level Washington Center
01:37PM 37.6772 -78.7483 228° Southwest 334 384 24,000  Level Washington Center
01:38PM 37.6208 -78.8272 228° Southwest 334 384 24,000  Level Washington Center
01:39PM 37.5600 -78.9086 227° Southwest 334 384 24,000  Level Washington Center
01:40PM 37.4928 -79.0050 229° Southwest 334 384 24,000  Level Washington Center
01:41PM 37.4364 -79.0808 227° Southwest 334 384 24,000  Level Washington Center
01:42PM 37.3644 -79.1797 228° Southwest 334 384 24,000  Level Washington Center
01:43PM 37.3014 -79.2656 227° Southwest 334 384 24,000  Level Washington Center
01:44PM 37.2361 -79.3536 227° Southwest 339 390 24,000  Level Washington Center
01:45PM 37.1708 -79.4417 227° Southwest 339 390 24,000  Level Washington Center
01:46PM 37.1119 -79.5194 226° Southwest 344 396 24,000  Level Washington Center
01:47PM 37.0419 -79.6147 227° Southwest 344 396 24,000  Level Washington Center
01:48PM 36.9786 -79.6997 227° Southwest 344 396 24,000  Level Washington Center
01:49PM 36.9217 -79.7772 227° Southwest 344 396 24,000  Level Washington Center
01:50PM 36.8494 -79.8719 226° Southwest 344 396 24,000  Level Washington Center
01:52PM 36.7028 -80.0617 226° Southwest 345 397 24,000  Level Atlanta Center
01:53PM 36.6431 -80.1475 229° Southwest 334 384 24,000  Level Atlanta Center
01:54PM 36.5789 -80.2283 225° Southwest 334 384 24,000 -60 Level Atlanta Center
01:55PM 36.5039 -80.2964 216° Southwest 329 379 23,900 -600 Descending Atlanta Center
01:56PM 36.4067 -80.3267 194° South 334 384 22,900 -1,020 Descending Atlanta Center
01:57PM 36.3097 -80.3619 196° South 351 404 21,900 -1,020 Descending Atlanta Center
01:58PM 36.2067 -80.3978 196° South 373 429 20,900 -960 Descending Atlanta Center
01:59PM 36.1053 -80.4331 196° South 378 435 20,000 -480 Descending Atlanta Center
02:00PM 36.0083 -80.4656 195° South 371 427 20,000  Level Atlanta Center
02:01PM 35.9156 -80.4978 196° South 365 420 20,000  Level Atlanta Center
02:02PM 35.8225 -80.5275 195° South 354 407 20,000  Level Atlanta Center
02:03PM 35.7339 -80.5697 201° Southwest 348 400 20,000  Level Atlanta Center
02:04PM 35.6928 -80.6636 242° Southwest 316 364 20,000  Level Atlanta Center
02:05PM 35.6453 -80.7575 238° Southwest 316 364 20,000  Level Atlanta Center
02:06PM 35.6275 -80.7967 241° Southwest 321 369 20,000 -900 Level Atlanta Center
02:06PM 35.5975 -80.8514 236° Southwest 326 375 19,100 -1,500 Descending Atlanta Center
02:07PM 35.5897 -80.8694 242° Southwest 330 380 18,800 -1,500 Descending Atlanta Center
02:07PM 35.5478 -80.9453 236° Southwest 331 381 17,600 -1,440 Descending Atlanta Center
02:07PM 35.5439 -80.9556 245° Southwest 330 380 17,500 -1,920 Descending Atlanta Center
02:09PM 35.4922 -81.0619 239° Southwest 313 360 15,300 -1,920 Descending Atlanta Center
02:09PM 35.4564 -81.1244 235° Southwest 321 369 13,900 -1,620 Descending Atlanta Center
02:10PM 35.4464 -81.1478 242° Southwest 302 348 13,700 -1,020 Descending Atlanta Center
02:10PM 35.4203 -81.1922 234° Southwest 313 360 12,900 -1,320 Descending Atlanta Center
02:11PM 35.4044 -81.2258 240° Southwest 273 314 12,400 -900 Descending Atlanta Center
02:11PM 35.3722 -81.2828 235° Southwest 300 345 12,000 -540 Descending Atlanta Center
02:11PM 35.3683 -81.2958 250° West 280 322 12,000 -120 Level Atlanta Center
02:12PM 35.3322 -81.3606 236° Southwest 288 331 11,900 -420 Descending Atlanta Center
02:13PM 35.3183 -81.3917 241° Southwest 273 314 11,500 -1,020 Descending Atlanta Center
02:13PM 35.2922 -81.4383 236° Southwest 282 325 10,900 -960 Descending Atlanta Center
02:14PM 35.2500 -81.5183 237° Southwest 282 325 9,900 -960 Descending Atlanta Center
02:15PM 35.2119 -81.5933 238° Southwest 277 319 9,000 -900 Descending Atlanta Center
02:17PM 35.1486 -81.6862 239° Southwest  Level FlightAware Approximate
02:24PM 34.8833 -82.2167 231° Southwest  Level FlightAware Approximate
02:25PM 34.8957 -82.2189 231° Southwest  Level Estimated
02:26PM 34.8957 -82.2189 231° Southwest  Level Estimated
02:27PM 34.8957 -82.2189 231° Southwest  Level Estimated
02:28PM 34.8957 -82.2189 231° Southwest  Level Estimated
02:29PM 34.8957 -82.2189 231° Southwest  Level Estimated
02:30PM 34.8957 -82.2189 231° Southwest  Level Estimated